Brisas de Naguabo, Puerto Rico
Current Conditions -  °F | °C
As of 4:53 PM on Tuesday 27 Jan 2015 (Local Time) from TJNR Reporting Station
Clear Clear  
Wind Chill: 81°   Ceiling: Unl
Heat Index: 85°   Visibility: 10mi
Dew Point: 71°   Wind: 9mph
Humidity: 72%   Direction: 170°S
Pressure: 30"   Gusts: NA
Location:  18.2147°N, 65.7358°W
Report Text: TJNR 272053Z AUTO 17008KT 10SM CLR 27/22 A3000 RMK AO2 SLP158 60000 T02720217 55003 $
Loading
Personal Weather Stations






























Interactive Weather Map New forecast layout! Learn more

10-Day Weather Forecast

Advertisements
Track Severe Weather on mobile